Terminal Aerodrome Forecast
Issued by NWS

Home | Current Version | Previous Version | Text Only | Print | Product List | Glossary On
Versions: 1 2 3 4 5 6 7 8 9 10 11 12 13 14 15
000
FTPQ31 PGUM 242000 RRA
TAFPQ
TAF

PGWT 242024Z 2420/2518 09008KT P6SM VCSH SCT018 SCT050 BKN120
      TEMPO 2420/2422 5SM TSRA SCT016CB BKN025
     FM250000 09011KT P6SM VCSH FEW018 SCT050 SCT120=

USA.gov is the U.S. government's official web portal to all federal, state and local government web resources and services.